createdAt,value
2019-01-27T00:00:34.826Z,3.70
2019-01-27T00:03:15.311Z,3.37
2019-01-27T00:05:55.408Z,4.43
2019-01-27T00:08:35.532Z,3.37
2019-01-27T00:11:15.505Z,3.73
2019-01-27T00:13:55.371Z,5.47
2019-01-27T00:16:35.396Z,3.47
2019-01-27T00:19:15.528Z,4.37
2019-01-27T00:21:55.791Z,3.57
2019-01-27T00:24:35.742Z,4.37
2019-01-27T00:27:16.115Z,5.63
2019-01-27T00:29:56.068Z,6.13
2019-01-27T00:32:36.027Z,5.60
2019-01-27T00:35:16.208Z,4.00
2019-01-27T00:37:56.435Z,3.97
2019-01-27T00:40:36.569Z,4.77
2019-01-27T00:43:16.940Z,4.63
2019-01-27T00:45:56.924Z,4.17
2019-01-27T00:48:36.889Z,2.90
2019-01-27T00:51:17.156Z,2.50
2019-01-27T00:53:56.819Z,3.00
2019-01-27T00:56:36.861Z,2.63
2019-01-27T00:59:16.936Z,3.00
2019-01-27T01:01:57.068Z,3.53
2019-01-27T01:04:37.155Z,3.30
2019-01-27T01:07:17.164Z,3.67
2019-01-27T01:09:57.162Z,3.07
2019-01-27T01:12:37.059Z,2.90
2019-01-27T01:15:17.236Z,3.77
2019-01-27T01:17:57.173Z,4.40
2019-01-27T01:20:37.259Z,3.53
2019-01-27T01:23:17.280Z,1.67
2019-01-27T01:25:57.179Z,3.27
2019-01-27T01:28:37.244Z,2.83
2019-01-27T01:31:17.640Z,2.00
2019-01-27T01:33:57.575Z,1.73
2019-01-27T01:36:37.708Z,3.50
2019-01-27T01:39:18.182Z,3.17
2019-01-27T01:41:58.243Z,2.63
2019-01-27T01:44:38.363Z,3.87
2019-01-27T01:47:18.785Z,1.60
2019-01-27T01:49:58.601Z,2.67
2019-01-27T01:52:38.553Z,2.10
2019-01-27T01:55:18.219Z,2.10
2019-01-27T01:57:58.375Z,1.47
2019-01-27T02:00:38.301Z,1.40
2019-01-27T02:03:18.525Z,1.30
2019-01-27T02:05:58.347Z,1.00
2019-01-27T02:08:38.372Z,1.40
2019-01-27T02:11:18.466Z,1.50
2019-01-27T02:13:58.461Z,1.20
2019-01-27T02:16:38.381Z,1.30
2019-01-27T02:19:18.314Z,1.63
2019-01-27T02:21:58.361Z,1.60
2019-01-27T02:24:38.349Z,2.20
2019-01-27T02:27:18.454Z,1.90
2019-01-27T02:29:58.658Z,1.40
2019-01-27T02:32:38.575Z,1.20
2019-01-27T02:35:18.670Z,1.73
2019-01-27T02:37:58.751Z,1.70
2019-01-27T02:40:38.750Z,0.97
2019-01-27T02:43:18.740Z,1.03
2019-01-27T02:45:58.796Z,0.80
2019-01-27T02:48:38.731Z,1.10
2019-01-27T02:51:18.840Z,0.90
2019-01-27T02:53:59.018Z,0.90
2019-01-27T02:56:39.019Z,0.90
2019-01-27T02:59:18.941Z,1.00
2019-01-27T03:01:58.993Z,1.20
2019-01-27T03:04:39.081Z,1.20
2019-01-27T03:10:27.744Z,0.90
2019-01-27T03:13:07.661Z,0.90
2019-01-27T03:15:47.791Z,1.17
2019-01-27T03:18:27.685Z,1.00
2019-01-27T03:21:07.907Z,0.80
2019-01-27T03:23:47.941Z,1.30
2019-01-27T03:26:27.986Z,1.10
2019-01-27T03:29:08.008Z,3.00
2019-01-27T03:31:48.160Z,1.60
2019-01-27T03:34:28.292Z,0.87
2019-01-27T03:37:08.342Z,0.80
2019-01-27T03:39:48.358Z,0.70
2019-01-27T03:42:28.473Z,2.77
2019-01-27T03:45:08.599Z,1.07
2019-01-27T03:47:48.785Z,1.20
2019-01-27T03:50:28.757Z,1.23
2019-01-27T03:53:08.749Z,1.37
2019-01-27T03:55:48.660Z,1.10
2019-01-27T03:58:28.601Z,1.30
2019-01-27T04:01:08.910Z,1.20
2019-01-27T04:03:49.049Z,1.67
2019-01-27T04:06:29.061Z,1.10
2019-01-27T04:09:09.046Z,1.50
2019-01-27T04:11:49.046Z,1.17
2019-01-27T04:14:29.410Z,1.80
2019-01-27T04:17:09.510Z,1.47
2019-01-27T04:19:49.628Z,1.40
2019-01-27T04:22:29.783Z,1.90
2019-01-27T04:25:09.714Z,1.80
2019-01-27T04:27:49.868Z,1.50
2019-01-27T04:30:32.099Z,1.90
2019-01-27T04:33:12.135Z,1.80
2019-01-27T04:35:51.904Z,1.80
2019-01-27T04:38:32.353Z,1.37
2019-01-27T04:41:12.303Z,1.20
2019-01-27T04:43:52.266Z,1.33
2019-01-27T04:46:32.113Z,1.63
2019-01-27T04:49:11.830Z,1.60
2019-01-27T04:51:51.792Z,1.20
2019-01-27T04:54:31.697Z,1.80
2019-01-27T04:57:11.510Z,2.03
2019-01-27T04:59:51.666Z,1.60
2019-01-27T05:02:38.081Z,1.37
2019-01-27T05:05:17.984Z,1.03
2019-01-27T05:07:57.794Z,1.50
2019-01-27T05:10:37.737Z,2.07
2019-01-27T05:13:17.723Z,1.57
2019-01-27T05:15:57.648Z,1.30
2019-01-27T05:18:37.497Z,1.20
2019-01-27T05:21:17.264Z,1.00
2019-01-27T05:23:57.300Z,1.13
2019-01-27T05:26:37.527Z,1.10
2019-01-27T05:29:17.385Z,0.97
2019-01-27T05:31:57.385Z,1.10
2019-01-27T05:34:37.493Z,1.10
2019-01-27T05:37:17.679Z,1.07
2019-01-27T05:39:57.778Z,1.40
2019-01-27T05:42:37.858Z,1.23
2019-01-27T05:45:17.788Z,1.20
2019-01-27T05:47:57.933Z,1.17
2019-01-27T05:50:37.932Z,2.50
2019-01-27T05:53:18.017Z,1.20
2019-01-27T05:55:57.975Z,0.83
2019-01-27T05:58:38.118Z,1.40
2019-01-27T06:01:18.280Z,1.03
2019-01-27T06:03:58.408Z,0.83
2019-01-27T06:06:38.478Z,0.90
2019-01-27T06:09:18.348Z,1.20
2019-01-27T06:11:58.458Z,0.80
2019-01-27T06:14:38.440Z,1.10
2019-01-27T06:17:18.562Z,1.00
2019-01-27T06:19:58.632Z,0.93
2019-01-27T06:22:38.605Z,1.73
2019-01-27T06:25:18.696Z,0.80
2019-01-27T06:27:58.661Z,1.03
2019-01-27T06:30:38.964Z,3.03
2019-01-27T06:36:34.191Z,1.00
2019-01-27T06:39:14.292Z,0.77
2019-01-27T06:41:54.214Z,0.87
2019-01-27T06:44:34.208Z,0.80
2019-01-27T06:47:14.232Z,1.07
2019-01-27T06:49:54.495Z,0.80
2019-01-27T06:52:34.591Z,1.17
2019-01-27T06:55:14.771Z,0.83
2019-01-27T06:57:54.810Z,1.07
2019-01-27T07:00:54.493Z,2.20
2019-01-27T07:03:43.220Z,0.80
2019-01-27T07:06:43.545Z,1.00
2019-01-27T07:12:47.574Z,0.60
2019-01-27T07:15:47.742Z,0.90
2019-01-27T07:18:49.786Z,0.60
2019-01-27T07:21:39.125Z,0.70
2019-01-27T07:24:40.363Z,0.70
2019-01-27T07:27:35.381Z,1.00
2019-01-27T07:30:34.884Z,0.60
2019-01-27T07:36:39.351Z,0.73
2019-01-27T07:39:26.964Z,1.63
2019-01-27T07:42:27.767Z,1.17
2019-01-27T07:45:27.688Z,0.67
2019-01-27T07:48:19.973Z,0.80
2019-01-27T07:51:20.368Z,0.60
2019-01-27T07:57:25.917Z,0.90
2019-01-27T08:00:20.837Z,0.70
2019-01-27T08:03:23.599Z,0.90
2019-01-27T08:06:25.792Z,2.40
2019-01-27T08:09:25.033Z,0.80
2019-01-27T08:12:24.321Z,0.90
2019-01-27T08:15:18.850Z,0.70
2019-01-27T08:18:19.407Z,0.60
2019-01-27T08:24:17.444Z,0.97
2019-01-27T08:27:12.858Z,0.60
2019-01-27T08:30:00.590Z,0.80
2019-01-27T08:32:55.286Z,0.93
2019-01-27T08:35:56.255Z,0.70
2019-01-27T08:38:59.453Z,0.83
2019-01-27T08:41:58.731Z,1.10
2019-01-27T08:44:58.628Z,2.20
2019-01-27T08:47:38.667Z,1.77
2019-01-27T08:50:18.400Z,1.50
2019-01-27T08:52:58.454Z,1.40
2019-01-27T08:55:38.609Z,1.20
2019-01-27T08:58:18.933Z,2.37
2019-01-27T09:01:18.594Z,1.13
2019-01-27T09:04:20.793Z,0.90
2019-01-27T09:07:07.321Z,0.70
2019-01-27T09:10:08.334Z,1.83
2019-01-27T09:16:12.312Z,0.77
2019-01-27T09:19:11.813Z,1.13
2019-01-27T09:25:16.379Z,2.67
2019-01-27T09:28:22.059Z,1.07
2019-01-27T09:31:22.764Z,0.73
2019-01-27T09:34:21.990Z,0.97
2019-01-27T09:37:22.521Z,0.80
2019-01-27T09:40:28.311Z,0.90
2019-01-27T09:43:30.343Z,0.90
2019-01-27T09:46:29.463Z,0.87
2019-01-27T09:49:26.408Z,1.13
2019-01-27T09:52:14.945Z,0.80
2019-01-27T09:55:06.151Z,1.87
2019-01-27T09:58:01.247Z,1.97
2019-01-27T10:00:54.269Z,1.50
2019-01-27T10:03:53.352Z,3.17
2019-01-27T10:06:45.705Z,1.13
2019-01-27T10:09:37.509Z,1.50
2019-01-27T10:12:38.463Z,0.90
2019-01-27T10:15:31.156Z,1.17
2019-01-27T10:18:31.543Z,0.80
2019-01-27T10:21:34.114Z,1.83
2019-01-27T10:24:35.303Z,0.60
2019-01-27T10:27:26.932Z,0.90
2019-01-27T10:30:26.392Z,0.73
2019-01-27T10:36:25.257Z,1.40
2019-01-27T10:42:29.042Z,1.27
2019-01-27T10:45:29.074Z,0.80
2019-01-27T10:48:31.417Z,1.20
2019-01-27T10:51:30.691Z,0.90
2019-01-27T10:57:27.362Z,1.63
2019-01-27T11:03:24.143Z,0.80
2019-01-27T11:09:10.042Z,0.80
2019-01-27T11:15:16.098Z,1.47
2019-01-27T11:18:18.524Z,1.10
2019-01-27T11:21:05.120Z,1.07
2019-01-27T11:24:08.052Z,0.70
2019-01-27T11:27:10.856Z,0.70
2019-01-27T11:30:02.223Z,1.10
2019-01-27T11:36:08.792Z,0.83
2019-01-27T11:39:09.797Z,2.93
2019-01-27T11:42:09.955Z,2.50
2019-01-27T11:45:11.038Z,1.50
2019-01-27T11:51:05.654Z,1.20
2019-01-27T11:53:45.830Z,1.57
2019-01-27T11:56:26.385Z,2.83
2019-01-27T11:59:06.542Z,1.00
2019-01-27T12:01:46.738Z,1.33
2019-01-27T12:04:26.670Z,3.13
2019-01-27T12:07:06.662Z,1.57
2019-01-27T12:09:46.907Z,1.23
2019-01-27T12:12:27.482Z,1.40
2019-01-27T12:15:07.542Z,4.47
2019-01-27T12:17:47.442Z,5.30
2019-01-27T12:20:27.577Z,3.63
2019-01-27T12:23:07.778Z,2.57
2019-01-27T12:25:47.733Z,4.20
2019-01-27T12:28:27.840Z,2.33
2019-01-27T12:31:08.170Z,3.20
2019-01-27T12:33:47.817Z,3.03
2019-01-27T12:36:28.147Z,3.83
2019-01-27T12:39:08.389Z,2.80
2019-01-27T12:41:48.130Z,2.37
2019-01-27T12:44:28.032Z,2.00
2019-01-27T12:47:08.023Z,2.00
2019-01-27T12:49:48.077Z,2.10
2019-01-27T12:52:28.209Z,4.20
2019-01-27T12:55:08.023Z,5.43
2019-01-27T12:57:48.211Z,5.50
2019-01-27T13:00:28.164Z,8.77
2019-01-27T13:03:08.053Z,9.10
2019-01-27T13:05:48.034Z,3.13
2019-01-27T13:08:28.292Z,2.27
2019-01-27T13:11:08.419Z,2.30
2019-01-27T13:13:48.563Z,3.13
2019-01-27T13:16:28.637Z,2.40
2019-01-27T13:19:08.709Z,1.50
2019-01-27T13:21:48.704Z,2.40
2019-01-27T13:24:28.874Z,1.67
2019-01-27T13:27:09.001Z,3.03
2019-01-27T13:29:49.017Z,1.83
2019-01-27T13:32:29.181Z,1.60
2019-01-27T13:35:09.123Z,2.43
2019-01-27T13:37:49.121Z,2.93
2019-01-27T13:40:29.317Z,1.97
2019-01-27T13:43:09.559Z,1.80
2019-01-27T13:45:49.637Z,3.03
2019-01-27T13:48:29.714Z,2.20
2019-01-27T13:51:09.767Z,1.67
2019-01-27T13:53:49.856Z,2.80
2019-01-27T13:56:29.927Z,2.10
2019-01-27T13:59:10.156Z,1.83
2019-01-27T14:01:50.250Z,3.03
2019-01-27T14:04:30.405Z,2.20
2019-01-27T14:07:10.578Z,1.50
2019-01-27T14:09:50.661Z,3.07
2019-01-27T14:12:30.808Z,3.07
2019-01-27T14:15:12.798Z,2.63
2019-01-27T14:17:52.716Z,5.23
2019-01-27T14:20:32.724Z,1.90
2019-01-27T14:23:12.734Z,3.83
2019-01-27T14:25:52.603Z,1.53
2019-01-27T14:28:32.589Z,1.30
2019-01-27T14:31:12.531Z,2.43
2019-01-27T14:33:52.517Z,1.87
2019-01-27T14:36:33.048Z,2.53
2019-01-27T14:39:13.062Z,1.50
2019-01-27T14:41:53.229Z,4.57
2019-01-27T14:44:33.342Z,2.60
2019-01-27T14:47:13.305Z,1.63
2019-01-27T14:49:53.565Z,1.77
2019-01-27T14:52:33.753Z,2.03
2019-01-27T14:55:14.074Z,2.00
2019-01-27T14:57:57.958Z,1.47
2019-01-27T15:00:37.827Z,2.93
2019-01-27T15:03:17.661Z,1.93
2019-01-27T15:05:57.758Z,3.33
2019-01-27T15:08:38.180Z,2.23
2019-01-27T15:11:17.774Z,3.67
2019-01-27T15:13:57.830Z,2.43
2019-01-27T15:16:38.083Z,2.20
2019-01-27T15:19:18.130Z,1.70
2019-01-27T15:21:57.937Z,1.73
2019-01-27T15:24:38.034Z,2.37
2019-01-27T15:27:18.115Z,2.07
2019-01-27T15:29:58.162Z,1.57
2019-01-27T15:32:38.277Z,2.07
2019-01-27T15:35:18.337Z,1.50
2019-01-27T15:37:58.290Z,1.70
2019-01-27T15:40:38.333Z,2.20
2019-01-27T15:43:18.364Z,2.00
2019-01-27T15:45:58.509Z,2.30
2019-01-27T15:48:41.102Z,2.50
2019-01-27T15:51:21.543Z,2.20
2019-01-27T15:54:01.466Z,2.10
2019-01-27T15:56:41.489Z,1.77
2019-01-27T15:59:21.659Z,2.30
2019-01-27T16:02:01.824Z,2.40
2019-01-27T16:04:41.841Z,3.87
2019-01-27T16:07:22.111Z,3.20
2019-01-27T16:10:02.597Z,2.70
2019-01-27T16:12:42.442Z,2.50
2019-01-27T16:15:22.576Z,3.73
2019-01-27T16:18:02.718Z,3.03
2019-01-27T16:20:42.629Z,3.77
2019-01-27T16:23:42.177Z,3.97
2019-01-27T16:26:22.005Z,3.70
2019-01-27T16:29:02.071Z,3.30
2019-01-27T16:31:46.688Z,4.43
2019-01-27T16:34:36.074Z,2.90
2019-01-27T16:37:16.654Z,2.87
2019-01-27T16:39:56.587Z,4.80
2019-01-27T16:42:36.725Z,3.70
2019-01-27T16:45:16.714Z,5.50
2019-01-27T16:47:57.022Z,4.50
2019-01-27T16:50:37.132Z,4.47
2019-01-27T16:53:17.172Z,5.87
2019-01-27T16:55:57.446Z,6.30
2019-01-27T16:58:37.325Z,5.00
2019-01-27T17:01:17.530Z,4.83
2019-01-27T17:03:57.717Z,7.27
2019-01-27T17:06:37.929Z,5.70
2019-01-27T17:09:18.084Z,6.47
2019-01-27T17:11:58.405Z,6.50
2019-01-27T17:14:38.134Z,6.33
2019-01-27T17:17:18.292Z,8.47
2019-01-27T17:20:02.469Z,8.00
2019-01-27T17:22:40.463Z,7.23
2019-01-27T17:25:20.228Z,8.97
2019-01-27T17:28:00.420Z,8.63
2019-01-27T17:30:40.490Z,8.57
2019-01-27T17:33:20.617Z,11.63
2019-01-27T17:36:00.483Z,8.93
2019-01-27T17:38:40.763Z,10.53
2019-01-27T17:41:20.489Z,9.13
2019-01-27T17:44:00.635Z,9.47
2019-01-27T17:46:40.646Z,10.40
2019-01-27T17:49:20.616Z,10.07
2019-01-27T17:52:00.654Z,11.80
2019-01-27T17:54:40.728Z,15.47
2019-01-27T17:57:41.267Z,11.30
2019-01-27T18:06:44.593Z,7.43
2019-01-27T18:09:46.866Z,8.30
2019-01-27T18:12:48.971Z,4.30
2019-01-27T18:15:28.649Z,4.43
2019-01-27T18:18:08.555Z,4.10
2019-01-27T18:20:48.616Z,4.30
2019-01-27T18:23:28.520Z,5.83
2019-01-27T18:26:08.502Z,4.20
2019-01-27T18:28:51.837Z,2.90
2019-01-27T18:31:30.469Z,5.47
2019-01-27T18:34:10.455Z,7.40
2019-01-27T18:36:50.502Z,5.40
2019-01-27T18:39:30.512Z,7.20
2019-01-27T18:42:10.854Z,6.73
2019-01-27T18:44:50.596Z,4.50
2019-01-27T18:47:30.386Z,3.80
2019-01-27T18:50:10.205Z,5.97
2019-01-27T18:56:05.705Z,6.27
2019-01-27T18:59:07.946Z,4.70
2019-01-27T19:02:08.313Z,6.93
2019-01-27T19:08:10.874Z,6.13
2019-01-27T19:10:57.190Z,7.27
2019-01-27T19:17:01.947Z,8.20
2019-01-27T19:20:08.041Z,5.93
2019-01-27T19:23:09.258Z,9.57
2019-01-27T19:29:13.394Z,6.43
2019-01-27T19:32:08.939Z,9.17
2019-01-27T19:35:00.221Z,8.77
2019-01-27T19:37:59.496Z,8.27
2019-01-27T19:40:52.140Z,6.00
2019-01-27T19:43:41.489Z,8.50
2019-01-27T19:46:46.843Z,7.43
2019-01-27T19:49:49.093Z,6.20
2019-01-27T19:52:49.067Z,6.67
2019-01-27T19:55:54.952Z,5.70
2019-01-27T20:02:00.079Z,12.07
2019-01-27T20:05:01.151Z,4.93
2019-01-27T20:07:49.601Z,8.00
2019-01-27T20:10:50.282Z,10.67
2019-01-27T20:13:51.409Z,11.67
2019-01-27T20:16:52.339Z,8.53
2019-01-27T20:19:39.898Z,9.43
2019-01-27T20:22:28.568Z,10.20
2019-01-27T20:28:26.893Z,9.23
2019-01-27T20:31:38.216Z,8.47
2019-01-27T20:34:37.290Z,8.93
2019-01-27T20:37:34.984Z,9.20
2019-01-27T20:40:32.636Z,8.70
2019-01-27T20:43:35.357Z,12.53
2019-01-27T20:46:21.860Z,9.97
2019-01-27T20:52:21.604Z,13.83
2019-01-27T20:55:23.917Z,10.73
2019-01-27T20:58:11.785Z,10.37
2019-01-27T21:01:11.113Z,13.57
2019-01-27T21:04:17.119Z,12.37
2019-01-27T21:07:22.972Z,10.43
2019-01-27T21:13:19.276Z,16.60
2019-01-27T21:16:14.133Z,6.83
2019-01-27T21:19:03.220Z,7.90
2019-01-27T21:21:43.445Z,8.13
2019-01-27T21:24:23.656Z,8.70
2019-01-27T21:27:06.558Z,7.00
2019-01-27T21:29:45.684Z,13.33
2019-01-27T21:32:25.913Z,9.30
2019-01-27T21:35:06.096Z,6.93
2019-01-27T21:37:45.996Z,7.93
2019-01-27T21:40:26.012Z,12.20
2019-01-27T21:43:06.273Z,8.67
2019-01-27T21:45:46.328Z,8.13
2019-01-27T21:48:26.372Z,15.53
2019-01-27T21:51:06.569Z,8.27
2019-01-27T21:53:46.485Z,13.03
2019-01-27T21:56:26.575Z,9.27
2019-01-27T21:59:06.637Z,9.63
2019-01-27T22:01:46.764Z,8.47
2019-01-27T22:04:26.876Z,10.73
2019-01-27T22:07:07.087Z,15.47
2019-01-27T22:09:47.158Z,14.87
2019-01-27T22:12:27.367Z,10.63
2019-01-27T22:15:07.589Z,11.37
2019-01-27T22:17:47.815Z,9.97
2019-01-27T22:20:27.883Z,10.20
2019-01-27T22:23:08.217Z,12.60
2019-01-27T22:25:48.154Z,8.23
2019-01-27T22:28:28.033Z,8.27
2019-01-27T22:31:08.173Z,8.63
2019-01-27T22:33:48.295Z,8.53
2019-01-27T22:36:28.545Z,10.53
2019-01-27T22:39:08.484Z,7.67
2019-01-27T22:41:48.595Z,7.83
2019-01-27T22:44:28.699Z,10.33
2019-01-27T22:47:09.014Z,7.27
2019-01-27T22:49:48.920Z,7.47
2019-01-27T22:52:29.353Z,9.63
2019-01-27T22:55:09.341Z,9.97
2019-01-27T22:57:49.297Z,13.47
2019-01-27T23:00:48.555Z,10.77
2019-01-27T23:03:28.288Z,10.63
2019-01-27T23:06:07.992Z,13.77
2019-01-27T23:08:48.064Z,13.37
2019-01-27T23:11:28.823Z,11.87
2019-01-27T23:14:09.250Z,13.53
2019-01-27T23:16:49.670Z,14.20
2019-01-27T23:19:29.839Z,14.77
2019-01-27T23:22:09.933Z,10.07
2019-01-27T23:24:50.093Z,10.80
2019-01-27T23:27:30.010Z,9.57
2019-01-27T23:30:10.018Z,12.20
2019-01-27T23:32:50.057Z,17.17
2019-01-27T23:35:30.133Z,10.57
2019-01-27T23:38:09.998Z,10.57
2019-01-27T23:40:50.078Z,17.00
2019-01-27T23:43:30.102Z,13.63
2019-01-27T23:46:10.157Z,11.50
2019-01-27T23:48:50.074Z,13.07
2019-01-27T23:51:29.915Z,15.50
2019-01-27T23:54:09.922Z,17.10
2019-01-27T23:56:49.820Z,14.70
2019-01-27T23:59:29.902Z,14.07
